Time;durP1;ratioP1;P1;durP2;ratioP2;P2;SDS_P1;SDS_P2;PMS_P1;PMS_P2;Temp;Humidity;BMP_temperature;BMP_pressure;BME280_temperature;BME280_humidity;BME280_pressure;Samples;Min_cycle;Max_cycle;Signal;HPM_P1;HPM_P2
2022/11/28 00:01:34;;;;;;;18.53;10.20;;;;;;;2.85;94.63;101397.89;1438821;90;22337;-81
2022/11/28 00:04:01;;;;;;;14.85;9.08;;;;;;;2.83;94.71;101403.67;1447330;88;22310;-82
2022/11/28 00:06:28;;;;;;;22.90;11.70;;;;;;;2.80;94.99;101394.68;1416102;89;21494;-81
2022/11/28 00:08:57;;;;;;;17.03;9.83;;;;;;;2.73;94.44;101390.19;1420199;89;22257;-81
2022/11/28 00:11:24;;;;;;;20.83;11.20;;;;;;;2.69;94.52;101390.80;1433631;89;22018;-81
2022/11/28 00:13:51;;;;;;;16.57;10.00;;;;;;;2.70;94.71;101389.90;1435601;89;22947;-81
2022/11/28 00:16:20;;;;;;;16.20;9.30;;;;;;;2.70;94.75;101384.67;1432660;89;22073;-82
2022/11/28 00:18:51;;;;;;;20.10;9.47;;;;;;;2.69;94.82;101395.19;1453776;87;22033;-82
2022/11/28 00:21:19;;;;;;;15.40;9.18;;;;;;;2.73;94.98;101394.57;1472564;87;22096;-81
2022/11/28 00:23:46;;;;;;;20.87;11.03;;;;;;;2.73;94.64;101398.48;1467698;87;21401;-80
2022/11/28 00:26:20;;;;;;;16.67;9.80;;;;;;;2.73;94.82;101400.64;1479361;87;23460;-81
2022/11/28 00:28:46;;;;;;;18.77;11.43;;;;;;;2.71;94.47;101398.58;1485978;87;23181;-81
2022/11/28 00:31:17;;;;;;;19.97;11.37;;;;;;;2.71;95.05;101404.65;1471841;87;22256;-80
2022/11/28 00:33:44;;;;;;;14.80;9.30;;;;;;;2.71;95.31;101407.73;1454298;87;22571;-80
2022/11/28 00:36:10;;;;;;;17.67;9.80;;;;;;;2.72;95.07;101408.11;1463170;87;21487;-80
2022/11/28 00:38:37;;;;;;;17.77;10.17;;;;;;;2.74;95.29;101408.05;1435508;90;22203;-81
2022/11/28 00:41:15;;;;;;;16.57;9.97;;;;;;;2.79;95.14;101408.65;1431644;91;22641;-80
2022/11/28 00:43:43;;;;;;;17.17;9.50;;;;;;;2.83;95.04;101412.83;1472913;88;23049;-82
2022/11/28 00:46:11;;;;;;;18.33;10.30;;;;;;;2.83;94.72;101416.75;1464821;88;23328;-82
2022/11/28 00:48:37;;;;;;;20.13;10.87;;;;;;;2.85;94.97;101417.06;1477896;88;23092;-81
2022/11/28 00:51:13;;;;;;;19.80;11.10;;;;;;;2.87;95.14;101413.90;1469302;88;22208;-82
2022/11/28 00:53:41;;;;;;;12.53;9.83;;;;;;;2.88;95.33;101405.16;1468631;88;22215;-82
2022/11/28 00:56:10;;;;;;;16.00;10.73;;;;;;;2.90;95.36;101406.37;1461905;88;22219;-82
2022/11/28 00:58:37;;;;;;;16.87;10.00;;;;;;;2.91;95.23;101402.38;1504347;90;23211;-82
2022/11/28 01:01:17;;;;;;;17.20;9.90;;;;;;;2.90;95.23;101396.75;1459790;88;22162;-81
2022/11/28 01:03:44;;;;;;;15.80;10.37;;;;;;;2.92;94.99;101398.00;1460827;88;22088;-81
2022/11/28 01:06:14;;;;;;;20.07;12.20;;;;;;;2.92;95.14;101387.07;1466273;88;22116;-79
2022/11/28 01:08:40;;;;;;;17.45;11.12;;;;;;;2.92;95.17;101388.84;1475962;88;22904;-80
2022/11/28 01:11:11;;;;;;;17.67;12.07;;;;;;;2.89;95.63;101379.84;1474808;88;21343;-80
2022/11/28 01:13:39;;;;;;;19.80;12.28;;;;;;;2.86;95.42;101378.69;1477601;88;21358;-80
2022/11/28 01:16:07;;;;;;;20.03;11.63;;;;;;;2.83;95.64;101369.69;1475429;88;21365;-79
2022/11/28 01:18:33;;;;;;;17.20;10.13;;;;;;;2.78;95.61;101348.98;1469069;88;22237;-79
2022/11/28 01:20:59;;;;;;;20.27;11.43;;;;;;;2.78;95.61;101348.98;1473118;88;21506;-81
2022/11/28 01:23:25;;;;;;;20.73;10.80;;;;;;;2.83;95.79;101361.84;1477799;88;22038;-81
2022/11/28 01:25:51;;;;;;;17.97;10.30;;;;;;;2.85;95.71;101345.59;1454567;88;23080;-81
2022/11/28 01:28:17;;;;;;;21.23;12.43;;;;;;;2.86;95.63;101346.84;1471014;88;22095;-81
2022/11/28 01:30:43;;;;;;;19.00;9.80;;;;;;;2.89;95.73;101349.77;1483298;88;21394;-83
2022/11/28 01:33:09;;;;;;;25.87;11.33;;;;;;;2.90;95.64;101342.30;1466830;88;21402;-83
2022/11/28 01:35:35;;;;;;;20.83;11.37;;;;;;;2.88;95.37;101340.25;1477392;88;22120;-80
2022/11/28 01:38:01;;;;;;;18.93;11.20;;;;;;;2.81;95.35;101331.84;1469474;88;22075;-82
2022/11/28 01:40:27;;;;;;;59.73;21.97;;;;;;;2.77;95.49;101329.47;1466351;88;21343;-81
2022/11/28 01:42:53;;;;;;;44.50;19.83;;;;;;;2.71;95.32;101329.31;1467232;88;21401;-82
2022/11/28 01:45:30;;;;;;;49.00;21.53;;;;;;;2.68;95.48;101328.99;1472320;88;21379;-81
2022/11/28 01:48:01;;;;;;;42.23;18.03;;;;;;;2.68;95.50;101334.22;1462472;88;22201;-82
2022/11/28 01:50:30;;;;;;;33.60;16.37;;;;;;;2.70;95.57;101327.59;1472948;88;22237;-82
2022/11/28 01:53:01;;;;;;;36.27;16.23;;;;;;;2.67;95.42;101327.28;1463090;88;22371;-83
2022/11/28 01:55:30;;;;;;;;;;;;;;;2.63;95.39;101327.52;1473777;88;23033;-80
2022/11/28 01:57:57;;;;;;;28.73;15.43;;;;;;;2.55;95.38;101325.27;1469480;88;20423;-82
2022/11/28 02:00:23;;;;;;;20.33;12.37;;;;;;;2.47;95.59;101322.17;1475853;88;22158;-82
2022/11/28 02:02:57;;;;;;;21.87;11.53;;;;;;;2.38;95.77;101320.02;1473766;88;22582;-84
2022/11/28 02:05:23;;;;;;;18.97;12.17;;;;;;;2.25;95.89;101319.77;1479884;88;22252;-84
2022/11/28 02:07:50;;;;;;;19.00;11.90;;;;;;;2.07;96.42;101313.61;1474459;88;22030;-83
2022/11/28 02:10:25;;;;;;;15.33;9.80;;;;;;;2.07;96.42;101313.61;1470860;88;23040;-84
2022/11/28 02:13:09;;;;;;;20.30;12.37;;;;;;;2.00;96.33;101305.69;1475214;88;22182;-81
2022/11/28 02:16:07;;;;;;;19.57;13.13;;;;;;;1.98;96.49;101303.13;1455597;89;22030;-81
2022/11/28 02:18:51;;;;;;;18.00;11.33;;;;;;;1.93;95.86;101302.99;1466550;88;22127;-82
2022/11/28 02:21:48;;;;;;;17.50;11.80;;;;;;;1.93;95.86;101302.99;1441785;88;21905;-82
2022/11/28 02:24:44;;;;;;;18.20;11.70;;;;;;;1.79;96.53;101312.28;1473566;88;22134;-82
2022/11/28 02:27:37;;;;;;;21.03;12.40;;;;;;;1.65;96.32;101309.92;1449043;89;21900;-80
2022/11/28 02:30:30;;;;;;;18.10;10.97;;;;;;;1.56;96.37;101312.48;1470089;88;21765;-81
2022/11/28 02:33:17;;;;;;;24.07;13.37;;;;;;;1.50;96.64;101310.14;1471832;88;22771;-82
2022/11/28 02:36:10;;;;;;;19.83;12.13;;;;;;;1.44;96.89;101315.61;1477031;88;21855;-83
2022/11/28 02:38:47;;;;;;;20.47;11.37;;;;;;;1.38;96.79;101315.88;1457430;88;21772;-82
2022/11/28 02:41:33;;;;;;;25.37;13.23;;;;;;;1.30;97.93;101315.77;1475443;88;21595;-80
2022/11/28 02:44:16;;;;;;;16.90;10.67;;;;;;;1.22;99.10;101319.16;1479550;88;21791;-81
2022/11/28 02:47:15;;;;;;;22.73;11.97;;;;;;;1.17;98.90;101315.89;1471043;88;21785;-79
2022/11/28 02:49:58;;;;;;;23.93;12.53;;;;;;;1.15;98.18;101311.66;1467382;88;21760;-79
2022/11/28 02:52:35;;;;;;;23.80;13.47;;;;;;;1.12;98.47;101310.89;1461765;88;22669;-79
2022/11/28 02:55:03;;;;;;;21.13;12.40;;;;;;;1.04;98.92;101311.67;1467905;88;22510;-80
2022/11/28 02:57:37;;;;;;;26.03;13.43;;;;;;;0.92;99.09;101319.14;1469518;88;21727;-82
2022/11/28 03:00:30;;;;;;;20.57;12.47;;;;;;;0.85;98.57;101321.17;1450430;88;22595;-80
2022/11/28 03:03:37;;;;;;;20.77;12.53;;;;;;;0.83;98.38;101319.91;1467561;88;21519;-83
2022/11/28 03:06:18;;;;;;;18.17;11.53;;;;;;;0.81;98.64;101311.34;1470055;88;21543;-83
2022/11/28 03:09:05;;;;;;;29.23;15.18;;;;;;;0.80;98.52;101308.78;1469127;88;21707;-84
2022/11/28 03:12:05;;;;;;;23.07;13.67;;;;;;;0.74;98.47;101303.82;1468579;88;22282;-79
2022/11/28 03:14:42;;;;;;;25.40;13.20;;;;;;;0.67;98.46;101307.98;1466184;88;22445;-84
2022/11/28 03:17:29;;;;;;;29.93;14.63;;;;;;;0.58;98.58;101314.04;1476037;88;21469;-83
2022/11/28 03:20:07;;;;;;;26.17;14.20;;;;;;;0.50;98.39;101309.13;1473068;88;21603;-82
2022/11/28 03:22:45;;;;;;;20.40;11.40;;;;;;;0.47;98.43;101310.55;1472715;88;21677;-83
2022/11/28 03:25:29;;;;;;;25.20;12.53;;;;;;;0.45;98.58;101310.60;1462581;88;21771;-80
2022/11/28 03:28:10;;;;;;;23.17;12.53;;;;;;;0.42;98.47;101299.00;1473440;88;22608;-80
2022/11/28 03:30:44;;;;;;;27.42;14.83;;;;;;;0.39;98.31;101306.94;1461974;88;21914;-80
2022/11/28 03:33:13;;;;;;;21.73;12.47;;;;;;;0.33;98.11;101310.25;1469303;88;22311;-80
2022/11/28 03:35:50;;;;;;;21.00;12.00;;;;;;;0.25;98.49;101306.64;1476427;88;22380;-80
2022/11/28 03:38:27;;;;;;;24.10;14.70;;;;;;;0.21;98.42;101306.38;1470917;88;21594;-80
2022/11/28 03:40:58;;;;;;;22.00;14.17;;;;;;;0.17;98.31;101311.30;1478854;88;22559;-79
2022/11/28 03:43:30;;;;;;;29.52;15.10;;;;;;;0.14;98.78;101298.39;1471335;88;21358;-80
2022/11/28 03:46:00;;;;;;;36.57;18.27;;;;;;;0.15;98.83;101297.05;1472729;88;21498;-80
2022/11/28 03:48:36;;;;;;;44.27;20.45;;;;;;;0.15;99.01;101305.32;1469119;88;22675;-79
2022/11/28 03:51:23;;;;;;;28.57;15.53;;;;;;;0.10;99.28;101305.95;1473127;88;21683;-77
2022/11/28 03:54:12;;;;;;;28.47;14.67;;;;;;;0.03;99.51;101305.77;1469163;88;21721;-79
2022/11/28 03:56:53;;;;;;;28.17;15.70;;;;;;;-0.04;100.00;101303.41;1466361;88;21512;-80
2022/11/28 03:59:24;;;;;;;26.65;14.85;;;;;;;-0.04;100.00;101295.59;1464941;88;21585;-80
2022/11/28 04:02:05;;;;;;;28.07;14.77;;;;;;;-0.05;100.00;101292.61;1473314;87;21359;-80
2022/11/28 04:04:55;;;;;;;29.92;14.87;;;;;;;-0.09;100.00;101288.41;1440665;88;22594;-80
2022/11/28 04:07:44;;;;;;;24.57;14.40;;;;;;;-0.15;100.00;101287.34;1435182;90;21891;-80
2022/11/28 04:10:22;;;;;;;29.13;15.20;;;;;;;-0.21;100.00;101284.98;1435681;90;21681;-82
2022/11/28 04:13:12;;;;;;;26.83;15.30;;;;;;;-0.25;99.80;101279.52;1439704;88;21695;-81
2022/11/28 04:16:20;;;;;;;25.77;15.37;;;;;;;-0.28;100.00;101283.53;1459251;88;21852;-80
2022/11/28 04:19:01;;;;;;;32.60;17.03;;;;;;;-0.33;99.81;101280.25;1466458;88;21599;-81
2022/11/28 04:21:35;;;;;;;30.68;17.42;;;;;;;-0.33;99.87;101270.69;1461262;88;21798;-81
2022/11/28 04:24:16;;;;;;;37.20;19.80;;;;;;;-0.33;99.99;101269.84;1470178;88;21424;-81
2022/11/28 04:26:49;;;;;;;33.23;19.37;;;;;;;-0.36;100.00;101260.85;1464062;88;21483;-80
2022/11/28 04:29:20;;;;;;;29.43;17.10;;;;;;;-0.43;100.00;101265.88;1470686;88;21589;-81
2022/11/28 04:31:49;;;;;;;35.70;19.53;;;;;;;-0.51;100.00;101267.02;1471228;88;22363;-83
2022/11/28 04:34:19;;;;;;;41.60;23.30;;;;;;;-0.54;100.00;101267.13;1469238;88;21857;-82
2022/11/28 04:36:47;;;;;;;50.17;27.23;;;;;;;-0.56;100.00;101262.89;1465688;88;21647;-82
2022/11/28 04:39:17;;;;;;;45.70;24.57;;;;;;;-0.55;100.00;101266.72;1461856;88;21676;-82
2022/11/28 04:41:54;;;;;;;40.75;22.82;;;;;;;-0.57;100.00;101267.25;1460969;88;21581;-81
2022/11/28 04:44:34;;;;;;;42.00;22.60;;;;;;;-0.57;100.00;101266.41;1466453;88;21605;-81
2022/11/28 04:47:01;;;;;;;46.33;22.98;;;;;;;-0.60;100.00;101261.31;1462251;88;22708;-81
2022/11/28 04:49:29;;;;;;;50.40;26.83;;;;;;;-0.63;100.00;101269.20;1467351;88;21564;-81
2022/11/28 04:52:15;;;;;;;56.40;26.53;;;;;;;-0.62;100.00;101271.76;1465371;88;21608;-79
2022/11/28 04:55:06;;;;;;;50.50;24.37;;;;;;;-0.62;100.00;101270.91;1475394;88;21562;-80
2022/11/28 04:57:37;;;;;;;51.97;28.10;;;;;;;-0.64;100.00;101276.16;1476285;88;22647;-80
2022/11/28 05:00:12;;;;;;;43.10;22.27;;;;;;;-0.63;100.00;101268.77;1469814;88;22747;-81
2022/11/28 05:02:41;;;;;;;53.03;24.00;;;;;;;-0.64;100.00;101276.16;1469458;88;21611;-81
2022/11/28 05:05:18;;;;;;;41.20;23.57;;;;;;;-0.62;100.00;101273.05;1469035;88;21645;-80
2022/11/28 05:07:44;;;;;;;55.07;27.17;;;;;;;-0.62;100.00;101271.76;1471941;88;21767;-81
2022/11/28 05:10:13;;;;;;;44.37;22.73;;;;;;;-0.61;100.00;101274.74;1470642;88;21702;-82
2022/11/28 05:12:39;;;;;;;47.27;26.23;;;;;;;-0.64;100.00;101268.81;1466161;88;21485;-80
2022/11/28 05:15:06;;;;;;;46.93;23.03;;;;;;;-0.65;100.00;101278.83;1470226;88;21518;-84
2022/11/28 05:17:32;;;;;;;40.93;22.83;;;;;;;-0.67;100.00;101277.56;1478439;88;21618;-89
2022/11/28 05:19:59;;;;;;;38.33;20.20;;;;;;;-0.66;100.00;101279.28;1448443;88;21629;-84
2022/11/28 05:22:25;;;;;;;37.33;20.90;;;;;;;-0.63;100.00;101279.59;1470376;88;21583;-84
2022/11/28 05:24:52;;;;;;;42.57;21.53;;;;;;;-0.65;100.00;101277.07;1465264;88;21680;-85
2022/11/28 05:27:18;;;;;;;46.13;22.93;;;;;;;-0.66;100.00;101281.02;1468458;88;22524;-83
2022/11/28 05:29:45;;;;;;;38.73;22.30;;;;;;;-0.70;100.00;101275.92;1479036;88;21556;-82
2022/11/28 05:32:12;;;;;;;36.33;20.53;;;;;;;-0.69;100.00;101278.09;1469998;88;21674;-83
2022/11/28 05:34:39;;;;;;;38.43;20.00;;;;;;;-0.70;100.00;101274.63;1471077;88;22355;-84
2022/11/28 05:37:05;;;;;;;39.87;19.67;;;;;;;-0.74;100.00;101278.70;1470959;88;22610;-84
2022/11/28 05:39:31;;;;;;;32.67;19.53;;;;;;;-0.81;100.00;101270.71;1476251;88;21658;-83
2022/11/28 05:41:58;;;;;;;39.90;21.83;;;;;;;-0.87;100.00;101271.77;1466604;88;21683;-84
2022/11/28 05:44:25;;;;;;;34.83;19.37;;;;;;;-0.88;100.00;101272.69;1470730;88;21613;-83
2022/11/28 05:46:51;;;;;;;33.57;18.50;;;;;;;-0.89;100.00;101266.23;1456857;88;21819;-83
2022/11/28 05:49:20;;;;;;;33.27;18.43;;;;;;;-0.93;100.00;101268.94;1478894;88;21706;-82
2022/11/28 05:51:45;;;;;;;33.70;18.70;;;;;;;-0.94;100.00;101276.35;1467739;88;21945;-81
2022/11/28 05:54:11;;;;;;;33.97;18.60;;;;;;;-1.00;100.00;101268.77;1479011;88;21618;-82
2022/11/28 05:56:37;;;;;;;29.90;17.87;;;;;;;-1.00;100.00;101268.77;1470916;88;21541;-80
2022/11/28 05:59:03;;;;;;;32.50;16.87;;;;;;;-0.97;100.00;101269.96;1472625;88;21578;-81
2022/11/28 06:01:29;;;;;;;34.30;18.17;;;;;;;-0.98;100.00;101270.87;1474658;88;21328;-81
2022/11/28 06:03:59;;;;;;;38.90;18.60;;;;;;;-1.01;100.00;101272.25;1476648;88;21477;-81
2022/11/28 06:06:29;;;;;;;41.07;21.07;;;;;;;-1.04;100.00;101267.16;1469686;88;21870;-83
2022/11/28 06:08:56;;;;;;;42.27;23.20;;;;;;;-1.04;100.00;101269.76;1475875;88;21521;-83
2022/11/28 06:11:25;;;;;;;41.20;20.30;;;;;;;-1.03;100.00;101268.88;1475149;87;21714;-82
2022/11/28 06:13:52;;;;;;;33.27;20.77;;;;;;;-0.98;100.00;101269.58;1474143;88;21521;-81
2022/11/28 06:16:26;;;;;;;37.20;19.90;;;;;;;-0.95;100.00;101266.87;1470693;88;22575;-82
2022/11/28 06:18:57;;;;;;;37.87;21.33;;;;;;;-0.91;100.00;101265.84;1472827;88;21614;-82
2022/11/28 06:21:26;;;;;;;38.37;21.30;;;;;;;-0.89;100.00;101262.33;1468535;88;21534;-83
2022/11/28 06:23:52;;;;;;;40.87;23.43;;;;;;;-0.91;100.00;101260.65;1468556;88;21641;-82
2022/11/28 06:26:22;;;;;;;43.30;23.60;;;;;;;-0.89;100.00;101270.13;1477343;88;23280;-83
2022/11/28 06:28:49;;;;;;;41.33;23.73;;;;;;;-0.84;100.00;101265.62;1471404;88;21852;-94
2022/11/28 06:31:22;;;;;;;41.90;23.13;;;;;;;-0.80;100.00;101260.73;1470326;88;21690;-86
2022/11/28 06:33:49;;;;;;;44.17;24.30;;;;;;;-0.74;100.00;101265.70;1477451;88;21739;-84
2022/11/28 06:36:17;;;;;;;48.87;24.80;;;;;;;-0.72;100.00;101267.35;1470036;88;21854;-80
2022/11/28 06:38:44;;;;;;;42.67;23.27;;;;;;;-0.69;100.00;101265.09;1470877;88;21848;-81
2022/11/28 06:41:14;;;;;;;41.93;23.73;;;;;;;-0.66;100.00;101265.41;1470725;88;22611;-80
2022/11/28 06:43:41;;;;;;;42.70;22.83;;;;;;;-0.61;100.00;101268.24;1475528;88;21513;-79
2022/11/28 06:46:17;;;;;;;46.40;24.97;;;;;;;-0.55;100.00;101271.91;1472763;88;21642;-79
2022/11/28 06:48:45;;;;;;;46.90;26.27;;;;;;;-0.48;100.00;101274.70;1469829;88;21792;-80
2022/11/28 06:51:12;;;;;;;42.60;25.93;;;;;;;-0.41;100.00;101269.27;1481890;88;22548;-80
2022/11/28 06:53:39;;;;;;;46.67;26.60;;;;;;;-0.37;100.00;101262.61;1478945;88;21569;-80
2022/11/28 06:56:10;;;;;;;51.47;25.33;;;;;;;-0.31;100.00;101262.84;1480173;88;21683;-80
2022/11/28 06:58:36;;;;;;;55.88;30.50;;;;;;;-0.27;100.00;101261.34;1471644;88;22586;-80
2022/11/28 07:01:13;;;;;;;63.63;33.63;;;;;;;-0.24;100.00;101253.87;1473276;88;21394;-80
2022/11/28 07:03:40;;;;;;;62.80;35.23;;;;;;;-0.22;100.00;101257.28;1466599;88;21644;-80
2022/11/28 07:06:08;;;;;;;65.20;34.77;;;;;;;-0.20;100.00;101255.48;1477565;88;22214;-80
2022/11/28 07:08:35;;;;;;;69.00;34.50;;;;;;;-0.21;100.00;101255.52;1466976;88;21673;-80
2022/11/28 07:11:20;;;;;;;62.13;32.00;;;;;;;-0.16;100.00;101257.04;1466503;87;21591;-80
2022/11/28 07:13:49;;;;;;;78.70;37.67;;;;;;;-0.13;100.00;101250.41;1472675;87;21645;-80
2022/11/28 07:16:22;;;;;;;77.27;36.00;;;;;;;-0.09;100.00;101251.14;1474538;87;21615;-80
2022/11/28 07:18:50;;;;;;;86.70;41.50;;;;;;;-0.07;100.00;101248.88;1475889;87;21680;-80
2022/11/28 07:21:17;;;;;;;88.43;41.13;;;;;;;-0.03;100.00;101248.29;1460793;87;21506;-80
2022/11/28 07:23:44;;;;;;;80.53;37.33;;;;;;;-0.01;100.00;101252.99;1481598;86;21470;-80
2022/11/28 07:26:14;;;;;;;63.50;34.00;;;;;;;0.00;100.00;101250.80;1469598;87;21514;-79
2022/11/28 07:28:40;;;;;;;59.20;31.80;;;;;;;0.06;100.00;101248.38;1467342;87;21741;-80
2022/11/28 07:31:14;;;;;;;59.03;30.33;;;;;;;0.12;100.00;101248.17;1477488;87;22662;-80
2022/11/28 07:33:42;;;;;;;53.03;29.70;;;;;;;0.22;100.00;101249.48;1446454;90;21791;-80
2022/11/28 07:36:15;;;;;;;53.57;30.63;;;;;;;0.35;100.00;101244.64;1442392;90;21665;-80
2022/11/28 07:38:42;;;;;;;58.00;31.03;;;;;;;0.44;100.00;101247.71;1453437;90;21628;-81
2022/11/28 07:41:11;;;;;;;50.27;28.53;;;;;;;0.57;100.00;101247.20;1454527;90;22597;-81
2022/11/28 07:43:41;;;;;;;47.37;26.37;;;;;;;0.66;100.00;101245.08;1439483;89;21829;-81
2022/11/28 07:46:11;;;;;;;55.23;28.90;;;;;;;0.74;100.00;101242.12;1446788;90;21642;-81
2022/11/28 07:48:38;;;;;;;49.93;27.97;;;;;;;0.86;100.00;101246.84;1449777;90;21651;-81
2022/11/28 07:51:10;;;;;;;44.10;26.47;;;;;;;0.99;100.00;101241.09;1442770;90;21859;-89
2022/11/28 07:53:37;;;;;;;105.57;60.83;;;;;;;1.13;100.00;101236.13;1446447;90;21676;-93
2022/11/28 07:56:07;;;;;;;45.70;28.70;;;;;;;1.26;100.00;101237.72;1448459;90;21652;-93
2022/11/28 07:58:35;;;;;;;77.60;44.27;;;;;;;1.39;100.00;101239.34;1439778;90;22626;-91
2022/11/28 08:01:16;;;;;;;46.83;28.83;;;;;;;1.49;100.00;101238.83;1457748;87;21681;-91
2022/11/28 08:03:44;;;;;;;37.07;21.47;;;;;;;1.60;100.00;101239.66;1468910;86;21935;-94
2022/11/28 08:06:11;;;;;;;33.67;21.77;;;;;;;1.57;98.57;101235.42;1465038;89;22108;-86
2022/11/28 08:08:37;;;;;;;41.77;26.57;;;;;;;1.69;98.61;101253.58;1453157;88;21971;-92
2022/11/28 08:11:07;;;;;;;35.10;22.20;;;;;;;1.77;97.55;101245.41;1460227;88;22024;-92
2022/11/28 08:13:38;;;;;;;39.97;27.23;;;;;;;1.86;96.51;101255.88;1460593;88;21803;-93
2022/11/28 08:16:14;;;;;;;30.48;18.65;;;;;;;1.86;96.51;101255.88;1467189;88;22898;-91
2022/11/28 08:18:41;;;;;;;31.90;20.03;;;;;;;1.90;95.70;101260.03;1466118;89;21451;-90
2022/11/28 08:21:22;;;;;;;30.17;17.53;;;;;;;1.92;96.02;101241.23;1461360;89;22061;-93
2022/11/28 08:23:50;;;;;;;30.43;19.45;;;;;;;2.00;94.66;101254.77;1467043;88;22238;-92
2022/11/28 08:26:19;;;;;;;38.67;23.80;;;;;;;2.22;96.37;101249.38;1456065;88;21405;-94
2022/11/28 08:28:46;;;;;;;35.50;21.57;;;;;;;2.22;96.37;101249.38;1463449;89;22159;-93
2022/11/28 08:31:23;;;;;;;34.07;22.40;;;;;;;2.38;96.39;101229.41;1461893;88;23217;-94
2022/11/28 08:33:52;;;;;;;32.90;20.37;;;;;;;2.51;96.43;101250.58;1462384;88;22130;-87
2022/11/28 08:36:20;;;;;;;29.50;18.83;;;;;;;2.67;95.57;101254.56;1476729;87;22916;-91
2022/11/28 08:38:47;;;;;;;32.13;19.77;;;;;;;2.81;95.49;101255.18;1497937;87;22901;-89
2022/11/28 08:41:17;;;;;;;33.47;20.37;;;;;;;3.12;92.93;101248.77;1493418;87;23093;-90
2022/11/28 08:43:47;;;;;;;37.97;19.87;;;;;;;3.24;92.04;101240.73;1488483;87;21331;-80
2022/11/28 08:46:19;;;;;;;30.47;19.13;;;;;;;3.24;92.04;101240.73;1475245;87;21413;-78
2022/11/28 08:48:46;;;;;;;46.03;18.93;;;;;;;3.47;93.03;101247.36;1479220;86;21405;-77
2022/11/28 08:51:15;;;;;;;40.30;20.23;;;;;;;3.53;89.63;101246.20;1489058;87;21345;-77
2022/11/28 08:53:43;;;;;;;33.53;19.20;;;;;;;3.57;90.06;101243.34;1484917;87;21359;-79
2022/11/28 08:56:10;;;;;;;35.47;20.83;;;;;;;3.63;89.32;101238.70;1497107;86;21360;-82
2022/11/28 08:58:36;;;;;;;43.73;26.33;;;;;;;3.66;89.32;101245.09;1496920;87;22433;-85
2022/11/28 09:01:03;;;;;;;34.83;21.30;;;;;;;3.68;88.53;101245.36;1492305;86;21324;-91
2022/11/28 09:03:30;;;;;;;30.37;20.00;;;;;;;3.69;88.04;101251.47;1455696;88;21359;-89
2022/11/28 09:06:03;;;;;;;39.30;23.93;;;;;;;3.73;89.33;101242.50;1477391;87;21574;-88
2022/11/28 09:08:29;;;;;;;35.77;18.43;;;;;;;3.77;89.23;101249.25;1499620;86;21342;-92
2022/11/28 09:10:55;;;;;;;49.83;33.80;;;;;;;3.82;88.98;101244.61;1469775;87;21505;-90
2022/11/28 09:13:21;;;;;;;33.20;21.67;;;;;;;3.89;89.85;101242.52;1474919;88;21482;-91
2022/11/28 09:15:48;;;;;;;34.47;21.40;;;;;;;3.95;88.39;101243.48;1467991;87;21357;-89
2022/11/28 09:18:14;;;;;;;32.90;19.57;;;;;;;3.98;88.25;101238.91;1472498;88;21380;-90
2022/11/28 09:20:41;;;;;;;30.90;18.27;;;;;;;4.03;87.82;101238.67;1473113;87;21431;-89
2022/11/28 09:23:08;;;;;;;31.07;18.67;;;;;;;4.06;87.13;101236.72;1479875;88;22193;-90
2022/11/28 09:25:37;;;;;;;37.70;23.67;;;;;;;4.13;87.26;101231.97;1477110;88;21321;-91
2022/11/28 09:28:04;;;;;;;37.50;22.13;;;;;;;4.16;86.22;101233.10;1457240;88;21379;-90
2022/11/28 09:30:31;;;;;;;31.97;19.60;;;;;;;4.24;85.80;101226.97;1471351;87;21357;-89
2022/11/28 09:32:57;;;;;;;27.07;17.93;;;;;;;4.37;86.33;101224.95;1479090;88;21321;-88
2022/11/28 09:35:23;;;;;;;35.53;23.73;;;;;;;4.44;85.57;101226.30;1476315;87;21422;-90
2022/11/28 09:37:49;;;;;;;32.53;22.40;;;;;;;4.52;85.16;101220.15;1477898;88;21322;-91
2022/11/28 09:40:20;;;;;;;47.63;32.40;;;;;;;4.69;86.26;101220.44;1483288;87;22244;-90
2022/11/28 09:42:46;;;;;;;31.50;19.67;;;;;;;4.90;84.90;101210.48;1472701;88;21373;-89
2022/11/28 09:45:20;;;;;;;43.70;28.97;;;;;;;5.01;84.85;101210.68;1477476;88;21402;-91
2022/11/28 09:47:54;;;;;;;41.90;26.10;;;;;;;5.18;82.29;101203.09;1473740;87;22275;-89
2022/11/28 09:50:28;;;;;;;35.20;24.30;;;;;;;5.33;82.77;101203.45;1473889;88;21460;-91
2022/11/28 09:53:24;;;;;;;29.67;20.30;;;;;;;5.43;81.78;101201.93;1472049;88;21380;-91
2022/11/28 09:56:01;;;;;;;29.97;20.07;;;;;;;5.55;82.52;101198.17;1463563;88;21469;-90
2022/11/28 09:58:49;;;;;;;34.03;20.83;;;;;;;5.56;81.37;101198.56;1472837;88;21416;-90
2022/11/28 10:01:42;;;;;;;30.83;19.93;;;;;;;5.60;82.21;101195.63;1471601;87;21463;-91
2022/11/28 10:04:41;;;;;;;40.20;25.57;;;;;;;5.64;81.75;101191.05;1476214;88;21462;-91
2022/11/28 10:07:22;;;;;;;36.90;25.23;;;;;;;5.70;81.88;101188.03;1474157;88;21313;-91
2022/11/28 10:10:26;;;;;;;32.08;22.22;;;;;;;5.70;81.54;101186.72;1475540;88;21571;-90
2022/11/28 10:13:20;;;;;;;33.83;21.70;;;;;;;5.67;79.47;101184.28;1449242;88;21512;-90
2022/11/28 10:16:15;;;;;;;33.13;21.10;;;;;;;5.62;80.65;101177.16;1477621;88;21483;-89
2022/11/28 10:18:52;;;;;;;34.57;21.87;;;;;;;5.74;82.63;101179.00;1470400;88;21590;-89
2022/11/28 10:21:42;;;;;;;64.23;38.57;;;;;;;5.88;82.38;101176.33;1444643;90;21384;-84
2022/11/28 10:24:17;;;;;;;36.87;23.87;;;;;;;5.92;80.97;101176.13;1427684;91;22529;-85
2022/11/28 10:26:51;;;;;;;47.40;31.23;;;;;;;5.98;81.66;101179.70;1432687;91;21538;-87
2022/11/28 10:29:23;;;;;;;35.27;22.43;;;;;;;5.96;80.29;101173.25;1469262;88;21380;-83
2022/11/28 10:31:57;;;;;;;40.70;24.07;;;;;;;6.03;81.70;101165.80;1472059;88;21352;-82
2022/11/28 10:34:37;;;;;;;65.27;40.57;;;;;;;6.12;81.93;101169.13;1474628;88;22222;-80
2022/11/28 10:37:11;;;;;;;37.07;23.07;;;;;;;6.18;81.69;101167.41;1460634;88;21424;-81
2022/11/28 10:39:42;;;;;;;40.53;26.07;;;;;;;6.14;80.98;101160.69;1478435;88;22252;-79
2022/11/28 10:42:41;;;;;;;37.48;22.65;;;;;;;6.15;80.81;101154.47;1475572;88;21299;-81
2022/11/28 10:45:19;;;;;;;35.80;22.60;;;;;;;6.22;81.73;101158.39;1480697;88;22303;-80
2022/11/28 10:48:09;;;;;;;37.30;23.47;;;;;;;6.26;81.84;101158.55;1472253;88;22429;-79
2022/11/28 10:50:47;;;;;;;35.93;22.73;;;;;;;6.32;81.94;101155.98;1475066;88;21461;-80
2022/11/28 10:53:21;;;;;;;36.50;22.57;;;;;;;6.22;79.86;101150.98;1473620;87;21418;-80
2022/11/28 10:56:09;;;;;;;35.00;22.67;;;;;;;6.19;80.46;101148.09;1469541;88;22352;-86
2022/11/28 10:59:03;;;;;;;35.80;22.93;;;;;;;6.22;80.99;101147.88;1476427;88;21262;-85
2022/11/28 11:01:34;;;;;;;32.57;22.00;;;;;;;6.26;79.84;101141.46;1481486;88;21431;-85
2022/11/28 11:04:01;;;;;;;38.97;26.47;;;;;;;6.30;80.48;101142.09;1475858;88;21410;-85
2022/11/28 11:06:27;;;;;;;39.63;24.43;;;;;;;6.33;81.07;101137.49;1468302;88;21402;-84
2022/11/28 11:08:53;;;;;;;40.60;24.73;;;;;;;6.32;80.79;101135.79;1463558;88;21654;-85
2022/11/28 11:11:29;;;;;;;37.70;25.37;;;;;;;6.36;80.80;101132.50;1472166;87;21439;-85
2022/11/28 11:14:08;;;;;;;48.33;26.27;;;;;;;6.38;81.17;101136.33;1473379;88;21270;-85
2022/11/28 11:16:54;;;;;;;42.50;26.03;;;;;;;6.40;80.82;101132.66;1477698;88;21558;-85
2022/11/28 11:19:31;;;;;;;39.83;25.10;;;;;;;6.41;80.86;101129.06;1477954;88;21438;-85
2022/11/28 11:22:06;;;;;;;43.67;26.03;;;;;;;6.47;81.28;101123.42;1469142;88;21658;-84
2022/11/28 11:24:32;;;;;;;49.70;26.50;;;;;;;6.52;81.04;101124.41;1463107;88;22496;-85
2022/11/28 11:27:19;;;;;;;43.73;26.07;;;;;;;6.57;81.07;101115.73;1465621;87;21538;-84
2022/11/28 11:29:45;;;;;;;44.00;26.17;;;;;;;6.53;79.82;101119.50;1472715;88;21446;-86
2022/11/28 11:32:28;;;;;;;37.87;24.80;;;;;;;6.61;80.52;101117.20;1473974;87;22194;-85
2022/11/28 11:34:57;;;;;;;39.20;23.80;;;;;;;6.72;81.45;101115.98;1477640;87;22336;-85
2022/11/28 11:37:34;;;;;;;45.63;28.47;;;;;;;6.85;81.19;101114.68;1474063;87;21470;-85
2022/11/28 11:40:05;;;;;;;42.17;25.90;;;;;;;6.95;80.91;101109.60;1477881;88;23196;-83